ULAA

Talagi Airport

Archangelsk, Russian Federation
TAF ULAA 201700Z 2018/2118 VRB01MPS 9999 BKN015 TEMPO 2018/2021 34003MPS 2100 -SN BR BKN011 TEMPO 2021/2023 26003MPS 3100 -SN BR BKN011 FM202300 15005MPS 6000 OVC013 TEMPO 2023/2109 11003G10MPS 3100 -SN OVC011
Issued Valid From Valid To
Apr-20 @ 17:00 UTC
(2 hours ago)
Apr-20 @ 18:00 UTC
(40 minutes ago)
Apr-21 @ 18:00 UTC
(in 23 hours)
Apr-20 @ 18:00 to Apr-20 @ 23:00
TAF ULAA 201700Z 2018/2118 VRB01MPS 9999 BKN015
Wind Visibility Clouds
Variable at 2 knots 10,000+ meters
  • Broken at 1,500' AGL
Temporary Apr-20 @ 18:00 to Apr-20 @ 21:00
TEMPO 2018/2021 34003MPS 2100 -SN BR BKN011
Wind Visibility Clouds Conditions
340° at 6 knots 2,092 meters
  • Broken at 1,100' AGL
  • Light Snow
  • Mist
Temporary Apr-20 @ 21:00 to Apr-20 @ 23:00
TEMPO 2021/2023 26003MPS 3100 -SN BR BKN011
Wind Visibility Clouds Conditions
260° at 6 knots 3,106 meters
  • Broken at 1,100' AGL
  • Light Snow
  • Mist
Temporary Apr-20 @ 23:00 to Apr-21 @ 09:00
TEMPO 2023/2109 11003G10MPS 3100 -SN OVC011
Wind Visibility Clouds Conditions
110° at 6 knots
 Gusting to 19 knots
3,106 meters
  • Overcast at 1,100' AGL
  • Light Snow
From Apr-20 @ 23:00 to Apr-21 @ 18:00
FM202300 15005MPS 6000 OVC013
Wind Visibility Clouds
150° at 10 knots 6,003 meters
  • Overcast at 1,300' AGL
TAF ULAA 201700Z 2018/2118 VRB01MPS 9999 BKN015 TEMPO 2018/2021 34003MPS 2100 -SN BR BKN011 TEMPO 2021/2023 26003MPS 3100 -SN BR BKN011 FM202300 15005MPS 6000 OVC013 TEMPO 2023/2109 11003G10MPS 3100 -SN OVC011
Issued Apr-20 @ 17:00 UTC
(2 hours ago)
Valid From Apr-20 @ 18:00 UTC
(40 minutes ago)
Valid To Apr-21 @ 18:00 UTC
(in 23 hours)
Apr-20 @ 18:00 - Apr-20 @ 23:00
Wind Visibility
Variable at 2 knots 10,000+ meters
Clouds
  • Broken at 1,500' AGL
Temporary Apr-20 @ 18:00 - Apr-20 @ 21:00
Wind Visibility
340° at 6 knots 2,092 meters
Clouds
  • Broken at 1,100' AGL
Conditions
  • Light Snow
  • Mist
Temporary Apr-20 @ 21:00 - Apr-20 @ 23:00
Wind Visibility
260° at 6 knots 3,106 meters
Clouds
  • Broken at 1,100' AGL
Conditions
  • Light Snow
  • Mist
Temporary Apr-20 @ 23:00 - Apr-21 @ 09:00
Wind Visibility
110° at 6 knots
 Gusting to 19 knots
3,106 meters
Clouds
  • Overcast at 1,100' AGL
Conditions
  • Light Snow
From Apr-20 @ 23:00 - Apr-21 @ 18:00
Wind Visibility
150° at 10 knots 6,003 meters
Clouds
  • Overcast at 1,300' AGL